Terminal Aerodrome Forecast
Issued by NWS

Home | Current Version | Previous Version | Graphics & Text | Print | Product List | Glossary On
Versions: 1 2 3 4 5 6 7 8 9 10 11 12 13 14 15 16 17 18 19 20 21
000
FTUS43 KBIS 241700
TAFJMS
TAF
KJMS 241734Z 2418/2518 21010KT 5SM BR OVC004
      TEMPO 2418/2421 3SM BR OVC004
     FM242100 18011KT P6SM FEW005 OVC050
     FM250200 22009KT P6SM SCT010 BKN020 OVC050
     FM250600 26007KT P6SM BKN010 OVC150
     FM251100 31007KT P6SM BKN008 OVC150=

USA.gov is the U.S. government's official web portal to all federal, state and local government web resources and services.